Time;durP1;ratioP1;P1;durP2;ratioP2;P2;SDS_P1;SDS_P2;PMS_P1;PMS_P2;Temp;Humidity;BMP_temperature;BMP_pressure;BME280_temperature;BME280_humidity;BME280_pressure;Samples;Min_cycle;Max_cycle;Signal;HPM_P1;HPM_P2
2022/02/14 00:01:44;;;;;;;;;;;13.60;54.30;;;;;;5163420;27;19911;-70
2022/02/14 00:04:09;;;;;;;;;;;13.60;54.30;;;;;;5163442;27;20013;-70
2022/02/14 00:06:35;;;;;;;;;;;13.60;54.30;;;;;;5163262;27;20228;-71
2022/02/14 00:09:01;;;;;;;;;;;13.60;54.30;;;;;;5162169;27;19923;-70
2022/02/14 00:11:26;;;;;;;;;;;13.60;54.40;;;;;;5163201;27;20204;-71
2022/02/14 00:13:52;;;;;;;;;;;13.60;54.30;;;;;;5163374;27;20099;-70
2022/02/14 00:16:17;;;;;;;;;;;13.60;54.20;;;;;;5163148;27;20047;-70
2022/02/14 00:18:43;;;;;;;;;;;13.60;54.30;;;;;;5163119;27;19911;-71
2022/02/14 00:21:09;;;;;;;;;;;13.60;54.20;;;;;;5162966;27;19911;-70
2022/02/14 00:23:34;;;;;;;;;;;13.60;54.30;;;;;;5163011;27;19956;-70
2022/02/14 00:26:00;;;;;;;;;;;13.60;54.20;;;;;;5162925;27;19993;-70
2022/02/14 00:28:26;;;;;;;;;;;13.60;54.20;;;;;;5162963;27;19919;-70
2022/02/14 00:30:51;;;;;;;;;;;13.60;54.30;;;;;;5162851;27;19918;-70
2022/02/14 00:33:17;;;;;;;;;;;13.60;54.30;;;;;;5162856;27;19903;-70
2022/02/14 00:35:43;;;;;;;;;;;13.60;54.90;;;;;;5162652;27;20219;-71
2022/02/14 00:38:08;;;;;;;;;;;13.60;54.40;;;;;;5162708;27;19950;-70
2022/02/14 00:40:35;;;;;;;;;;;13.60;54.30;;;;;;5162707;27;19915;-70
2022/02/14 00:43:02;;;;;;;;;;;13.60;54.30;;;;;;5162675;27;20244;-70
2022/02/14 00:45:28;;;;;;;;;;;13.60;54.20;;;;;;5162593;27;19999;-70
2022/02/14 00:47:53;;;;;;;;;;;13.60;54.30;;;;;;5162368;27;19932;-72
2022/02/14 00:50:19;;;;;;;;;;;13.60;54.20;;;;;;5162522;27;20115;-71
2022/02/14 00:52:44;;;;;;;;;;;13.60;54.10;;;;;;5162435;27;19915;-71
2022/02/14 00:55:12;;;;;;;;;;;13.60;54.20;;;;;;5162369;27;19918;-70
2022/02/14 00:57:37;;;;;;;;;;;13.60;54.20;;;;;;5143884;27;19903;-70
2022/02/14 01:00:04;;;;;;;;;;;13.60;54.20;;;;;;5162359;27;19945;-70
2022/02/14 01:02:30;;;;;;;;;;;13.50;54.10;;;;;;5162193;27;20015;-70
2022/02/14 01:04:59;;;;;;;;;;;13.50;54.20;;;;;;5162226;27;20279;-70
2022/02/14 01:07:24;;;;;;;;;;;13.60;54.30;;;;;;5161994;27;19922;-69
2022/02/14 01:09:50;;;;;;;;;;;13.50;54.10;;;;;;5162189;27;19911;-70
2022/02/14 01:12:16;;;;;;;;;;;13.50;54.20;;;;;;5162126;27;20003;-70
2022/02/14 01:14:41;;;;;;;;;;;13.50;54.10;;;;;;5162060;27;19918;-70
2022/02/14 01:17:08;;;;;;;;;;;13.50;54.10;;;;;;5161991;27;19903;-70
2022/02/14 01:19:34;;;;;;;;;;;13.50;54.20;;;;;;5161743;27;19911;-70
2022/02/14 01:21:59;;;;;;;;;;;13.50;54.10;;;;;;5162012;27;19945;-71
2022/02/14 01:24:25;;;;;;;;;;;13.50;54.00;;;;;;5161895;27;20195;-70
2022/02/14 01:26:51;;;;;;;;;;;13.50;54.10;;;;;;5161774;27;19922;-70
2022/02/14 01:29:17;;;;;;;;;;;13.50;54.20;;;;;;5161826;27;19911;-70
2022/02/14 01:31:42;;;;;;;;;;;13.50;54.30;;;;;;5161804;27;19903;-70
2022/02/14 01:34:08;;;;;;;;;;;13.50;54.30;;;;;;5161720;27;19934;-70
2022/02/14 01:36:34;;;;;;;;;;;13.50;54.20;;;;;;5161716;27;19911;-70
2022/02/14 01:38:59;;;;;;;;;;;13.50;54.30;;;;;;5161611;27;19978;-70
2022/02/14 01:41:25;;;;;;;;;;;13.50;54.30;;;;;;5161648;27;19911;-70
2022/02/14 01:43:50;;;;;;;;;;;13.50;54.20;;;;;;5161628;27;19919;-69
2022/02/14 01:46:16;;;;;;;;;;;13.50;54.20;;;;;;5161554;27;19911;-70
2022/02/14 01:48:42;;;;;;;;;;;13.50;54.30;;;;;;5161571;27;20080;-70
2022/02/14 01:51:08;;;;;;;;;;;13.50;54.30;;;;;;5161621;27;19911;-70
2022/02/14 01:53:33;;;;;;;;;;;13.50;54.30;;;;;;5161496;27;19918;-70
2022/02/14 01:55:59;;;;;;;;;;;13.50;54.30;;;;;;5161573;27;20099;-70
2022/02/14 01:58:25;;;;;;;;;;;13.50;54.30;;;;;;5161483;27;19918;-69
2022/02/14 02:00:51;;;;;;;;;;;13.50;54.90;;;;;;5161518;27;20485;-70
2022/02/14 02:03:17;;;;;;;;;;;13.50;54.20;;;;;;5161495;27;19903;-70
2022/02/14 02:05:45;;;;;;;;;;;13.50;54.10;;;;;;5161465;27;19911;-70
2022/02/14 02:08:13;;;;;;;;;;;13.50;54.10;;;;;;5160774;27;20455;-70
2022/02/14 02:10:38;;;;;;;;;;;13.50;54.20;;;;;;5161441;27;19912;-70
2022/02/14 02:13:04;;;;;;;;;;;13.50;54.30;;;;;;5161368;27;19918;-70
2022/02/14 02:15:31;;;;;;;;;;;13.50;54.30;;;;;;5161345;27;20160;-71
2022/02/14 02:17:57;;;;;;;;;;;13.50;54.30;;;;;;5161315;27;19911;-70
2022/02/14 02:20:22;;;;;;;;;;;13.50;54.30;;;;;;5161231;27;19926;-70
2022/02/14 02:22:49;;;;;;;;;;;13.50;54.30;;;;;;5161339;27;19918;-70
2022/02/14 02:25:15;;;;;;;;;;;13.50;54.10;;;;;;5142632;27;19986;-69
2022/02/14 02:27:42;;;;;;;;;;;13.50;54.10;;;;;;5161121;27;19942;-70
2022/02/14 02:30:08;;;;;;;;;;;13.50;54.20;;;;;;5161244;27;20217;-70
2022/02/14 02:32:34;;;;;;;;;;;13.50;54.20;;;;;;5163473;27;19919;-70
2022/02/14 02:35:01;;;;;;;;;;;13.50;54.20;;;;;;5165231;27;19911;-70
2022/02/14 02:37:27;;;;;;;;;;;13.50;54.10;;;;;;5165120;27;19959;-70
2022/02/14 02:39:52;;;;;;;;;;;13.50;54.10;;;;;;5165116;27;19903;-70
2022/02/14 02:42:19;;;;;;;;;;;13.50;54.10;;;;;;5165047;27;19918;-70
2022/02/14 02:44:45;;;;;;;;;;;13.50;54.00;;;;;;5165025;27;19967;-70
2022/02/14 02:47:12;;;;;;;;;;;13.50;54.10;;;;;;5146180;27;19959;-70
2022/02/14 02:49:38;;;;;;;;;;;13.50;54.10;;;;;;5164971;27;19918;-70
2022/02/14 02:52:07;;;;;;;;;;;13.50;54.20;;;;;;5164815;27;20126;-71
2022/02/14 02:54:33;;;;;;;;;;;13.50;54.20;;;;;;5164807;27;19982;-70
2022/02/14 02:56:59;;;;;;;;;;;13.50;54.20;;;;;;5164797;27;19911;-70
2022/02/14 02:59:26;;;;;;;;;;;13.50;54.20;;;;;;5164748;27;20017;-70
2022/02/14 03:01:52;;;;;;;;;;;13.40;54.20;;;;;;5164601;27;19918;-70
2022/02/14 03:04:18;;;;;;;;;;;13.40;54.10;;;;;;5164669;27;19903;-70
2022/02/14 03:06:44;;;;;;;;;;;13.40;54.70;;;;;;5164517;27;19915;-70
2022/02/14 03:09:10;;;;;;;;;;;13.40;54.20;;;;;;5164436;27;19959;-70
2022/02/14 03:11:37;;;;;;;;;;;13.50;54.20;;;;;;5164508;27;19970;-70
2022/02/14 03:14:03;;;;;;;;;;;13.40;54.10;;;;;;5164444;27;20195;-70
2022/02/14 03:16:29;;;;;;;;;;;13.50;54.20;;;;;;5164441;27;20176;-70
2022/02/14 03:18:54;;;;;;;;;;;13.50;54.10;;;;;;5164646;27;19911;-70
2022/02/14 03:21:20;;;;;;;;;;;13.50;54.10;;;;;;5164306;27;19904;-70
2022/02/14 03:23:47;;;;;;;;;;;13.40;54.10;;;;;;5145716;27;19911;-70
2022/02/14 03:26:13;;;;;;;;;;;13.40;54.10;;;;;;5164206;27;20159;-70
2022/02/14 03:28:39;;;;;;;;;;;13.40;54.10;;;;;;5164191;27;19911;-69
2022/02/14 03:31:05;;;;;;;;;;;13.40;54.10;;;;;;5164143;27;20106;-69
2022/02/14 03:33:30;;;;;;;;;;;13.40;54.10;;;;;;5145471;27;19917;-70
2022/02/14 03:35:56;;;;;;;;;;;13.40;54.10;;;;;;5164085;27;19911;-69
2022/02/14 03:38:22;;;;;;;;;;;13.40;54.20;;;;;;5164073;27;19910;-70
2022/02/14 03:40:48;;;;;;;;;;;13.40;54.10;;;;;;5145337;27;19917;-69
2022/02/14 03:43:13;;;;;;;;;;;13.40;54.10;;;;;;5145308;27;19914;-69
2022/02/14 03:45:40;;;;;;;;;;;13.40;54.10;;;;;;5163933;27;20147;-70
2022/02/14 03:48:06;;;;;;;;;;;13.40;54.20;;;;;;5163900;27;19915;-70
2022/02/14 03:50:31;;;;;;;;;;;13.40;54.10;;;;;;5163764;27;19918;-70
2022/02/14 03:52:57;;;;;;;;;;;13.40;54.80;;;;;;5163690;27;19904;-70
2022/02/14 03:55:23;;;;;;;;;;;13.40;54.10;;;;;;5163710;27;19918;-70
2022/02/14 03:57:51;;;;;;;;;;;13.40;54.10;;;;;;5163754;27;19911;-69
2022/02/14 04:00:18;;;;;;;;;;;13.40;54.10;;;;;;5164413;27;19914;-69
2022/02/14 04:02:44;;;;;;;;;;;13.40;54.10;;;;;;5145981;27;19956;-69
2022/02/14 04:05:11;;;;;;;;;;;13.40;54.10;;;;;;5165261;27;19907;-70
2022/02/14 04:07:37;;;;;;;;;;;13.40;54.10;;;;;;5146161;27;19937;-69
2022/02/14 04:10:07;;;;;;;;;;;13.40;54.30;;;;;;5146895;27;20192;-70
2022/02/14 04:12:32;;;;;;;;;;;13.30;54.30;;;;;;5147843;27;19903;-70
2022/02/14 04:14:58;;;;;;;;;;;13.30;54.30;;;;;;5147595;27;20168;-70
2022/02/14 04:17:25;;;;;;;;;;;13.30;54.30;;;;;;5146229;27;19911;-70
2022/02/14 04:19:51;;;;;;;;;;;13.30;54.30;;;;;;5164967;27;19918;-69
2022/02/14 04:22:17;;;;;;;;;;;13.40;54.30;;;;;;5146475;27;19907;-70
2022/02/14 04:24:42;;;;;;;;;;;13.40;54.30;;;;;;5165073;27;20223;-70
2022/02/14 04:27:08;;;;;;;;;;;13.40;54.20;;;;;;5164849;27;19915;-69
2022/02/14 04:29:34;;;;;;;;;;;13.40;54.20;;;;;;5163229;27;20381;-70
2022/02/14 04:31:59;;;;;;;;;;;13.40;54.20;;;;;;5162941;27;19911;-70
2022/02/14 04:34:25;;;;;;;;;;;13.40;54.20;;;;;;5162824;27;20219;-69
2022/02/14 04:36:51;;;;;;;;;;;13.50;54.10;;;;;;5162760;27;20199;-70
2022/02/14 04:39:17;;;;;;;;;;;13.40;54.00;;;;;;5144747;27;19911;-70
2022/02/14 04:41:42;;;;;;;;;;;13.40;54.10;;;;;;5162858;27;20214;-70
2022/02/14 04:44:08;;;;;;;;;;;13.40;54.10;;;;;;5162763;27;19911;-69
2022/02/14 04:46:34;;;;;;;;;;;13.40;54.30;;;;;;5163238;27;19960;-70
2022/02/14 04:49:00;;;;;;;;;;;13.30;54.10;;;;;;5144679;27;19990;-70
2022/02/14 04:51:25;;;;;;;;;;;13.30;54.20;;;;;;5163349;27;19946;-70
2022/02/14 04:53:52;;;;;;;;;;;13.30;54.30;;;;;;5144646;27;20103;-70
2022/02/14 04:56:18;;;;;;;;;;;13.30;54.30;;;;;;5163055;27;19911;-69
2022/02/14 04:58:44;;;;;;;;;;;13.30;54.20;;;;;;5163121;27;19917;-70
2022/02/14 05:01:09;;;;;;;;;;;13.30;54.20;;;;;;5162792;27;19911;-69
2022/02/14 05:03:35;;;;;;;;;;;13.30;54.20;;;;;;5144014;27;19903;-69
2022/02/14 05:06:00;;;;;;;;;;;13.30;54.30;;;;;;5162469;27;19918;-70
2022/02/14 05:08:26;;;;;;;;;;;13.30;54.20;;;;;;5140200;27;19930;-70
2022/02/14 05:10:52;;;;;;;;;;;13.30;54.40;;;;;;5141725;27;19903;-70
2022/02/14 05:13:17;;;;;;;;;;;13.30;54.30;;;;;;5141703;27;19911;-70
2022/02/14 05:15:43;;;;;;;;;;;13.30;54.20;;;;;;5141672;27;19918;-70
2022/02/14 05:18:09;;;;;;;;;;;13.30;53.90;;;;;;5141809;27;20248;-69
2022/02/14 05:20:34;;;;;;;;;;;13.20;53.80;;;;;;5141666;27;20109;-70
2022/02/14 05:23:00;;;;;;;;;;;13.20;53.80;;;;;;5141621;27;20435;-70
2022/02/14 05:25:25;;;;;;;;;;;13.20;54.10;;;;;;5141590;27;20110;-70
2022/02/14 05:27:51;;;;;;;;;;;13.30;54.30;;;;;;5140259;27;19916;-70
2022/02/14 05:30:17;;;;;;;;;;;13.30;54.30;;;;;;5141707;27;19903;-69
2022/02/14 05:32:42;;;;;;;;;;;13.30;54.20;;;;;;5141308;27;19908;-70
2022/02/14 05:35:08;;;;;;;;;;;13.30;54.20;;;;;;5141401;27;19911;-69
2022/02/14 05:37:33;;;;;;;;;;;13.30;54.10;;;;;;5140050;27;20200;-70
2022/02/14 05:39:59;;;;;;;;;;;13.30;54.20;;;;;;5141492;27;20113;-70
2022/02/14 05:42:26;;;;;;;;;;;13.30;54.00;;;;;;5140139;27;20005;-70
2022/02/14 05:44:52;;;;;;;;;;;13.30;54.00;;;;;;5141622;27;20115;-70
2022/02/14 05:47:18;;;;;;;;;;;13.30;53.90;;;;;;5141393;27;19915;-70
2022/02/14 05:49:43;;;;;;;;;;;13.30;54.00;;;;;;5141437;27;19943;-70
2022/02/14 05:52:09;;;;;;;;;;;13.30;54.10;;;;;;5141395;28;19916;-70
2022/02/14 05:54:35;;;;;;;;;;;13.30;54.00;;;;;;5140263;28;19922;-69
2022/02/14 05:57:00;;;;;;;;;;;13.30;53.80;;;;;;5141180;28;19912;-69
2022/02/14 05:59:26;;;;;;;;;;;13.30;53.50;;;;;;5141335;28;19912;-70
2022/02/14 06:01:52;;;;;;;;;;;13.20;53.50;;;;;;5141746;28;19919;-69
2022/02/14 06:04:17;;;;;;;;;;;13.10;53.60;;;;;;5141569;28;19904;-69
2022/02/14 06:06:43;;;;;;;;;;;13.10;53.80;;;;;;5142300;27;19937;-71
2022/02/14 06:09:09;;;;;;;;;;;13.20;54.00;;;;;;5161274;27;19923;-70
2022/02/14 06:11:34;;;;;;;;;;;13.20;54.10;;;;;;5166618;27;19911;-70
2022/02/14 06:14:00;;;;;;;;;;;13.20;54.20;;;;;;5166495;27;19903;-69
2022/02/14 06:16:26;;;;;;;;;;;13.20;54.20;;;;;;5147834;27;20354;-69
2022/02/14 06:18:51;;;;;;;;;;;13.20;54.20;;;;;;5166739;27;19911;-69
2022/02/14 06:21:17;;;;;;;;;;;13.30;54.00;;;;;;5166289;27;20111;-70
2022/02/14 06:23:43;;;;;;;;;;;13.30;54.00;;;;;;5165597;27;20168;-69
2022/02/14 06:26:09;;;;;;;;;;;13.20;53.70;;;;;;5165512;27;19945;-70
2022/02/14 06:28:38;;;;;;;;;;;13.20;53.70;;;;;;5165798;27;19915;-69
2022/02/14 06:31:05;;;;;;;;;;;13.20;54.10;;;;;;5165439;27;19918;-70
2022/02/14 06:33:31;;;;;;;;;;;13.20;54.00;;;;;;5165708;27;19937;-70
2022/02/14 06:35:56;;;;;;;;;;;13.20;54.10;;;;;;5165428;27;20199;-70
2022/02/14 06:38:22;;;;;;;;;;;13.20;54.10;;;;;;5165341;27;19909;-69
2022/02/14 06:40:47;;;;;;;;;;;13.30;54.00;;;;;;5165344;27;19919;-70
2022/02/14 06:43:13;;;;;;;;;;;13.30;54.00;;;;;;5165239;27;20092;-70
2022/02/14 06:45:39;;;;;;;;;;;13.30;54.00;;;;;;5165268;27;19911;-69
2022/02/14 06:48:04;;;;;;;;;;;13.20;54.10;;;;;;5165066;27;19986;-69
2022/02/14 06:50:30;;;;;;;;;;;13.30;54.00;;;;;;5165150;27;19910;-69
2022/02/14 06:52:56;;;;;;;;;;;13.30;54.10;;;;;;5164968;27;20111;-69
2022/02/14 06:55:21;;;;;;;;;;;13.30;54.00;;;;;;5165005;27;19918;-70
2022/02/14 06:57:47;;;;;;;;;;;13.30;54.20;;;;;;5164985;27;19903;-69
2022/02/14 07:00:14;;;;;;;;;;;13.30;54.00;;;;;;5146172;27;19918;-70
2022/02/14 07:02:41;;;;;;;;;;;13.20;53.90;;;;;;5164861;27;19948;-70
2022/02/14 07:05:07;;;;;;;;;;;13.20;53.70;;;;;;5146235;27;20088;-69
2022/02/14 07:07:32;;;;;;;;;;;13.20;53.70;;;;;;5164483;27;19914;-70
2022/02/14 07:09:58;;;;;;;;;;;13.10;53.10;;;;;;5144971;27;20003;-70
2022/02/14 07:12:24;;;;;;;;;;;13.10;53.10;;;;;;5144839;27;19946;-70
2022/02/14 07:14:49;;;;;;;;;;;13.00;53.70;;;;;;5163314;27;20239;-70
2022/02/14 07:17:15;;;;;;;;;;;13.10;53.80;;;;;;5162979;27;20417;-70
2022/02/14 07:19:40;;;;;;;;;;;13.20;54.30;;;;;;5163333;27;20186;-71
2022/02/14 07:22:06;;;;;;;;;;;13.20;54.20;;;;;;5163344;27;19911;-70
2022/02/14 07:24:32;;;;;;;;;;;13.20;54.20;;;;;;5163223;27;19910;-70
2022/02/14 07:26:58;;;;;;;;;;;13.20;54.10;;;;;;5163119;27;19915;-69
2022/02/14 07:29:23;;;;;;;;;;;13.20;54.10;;;;;;5163123;27;19911;-69
2022/02/14 07:31:49;;;;;;;;;;;13.20;54.10;;;;;;5144493;27;20065;-69
2022/02/14 07:34:14;;;;;;;;;;;13.20;54.00;;;;;;5163109;27;19911;-69
2022/02/14 07:36:40;;;;;;;;;;;13.30;53.90;;;;;;5163103;27;19918;-70
2022/02/14 07:39:06;;;;;;;;;;;13.30;53.90;;;;;;5163012;27;19911;-69
2022/02/14 07:41:34;;;;;;;;;;;13.30;53.80;;;;;;5162918;27;19919;-70
2022/02/14 07:44:00;;;;;;;;;;;13.30;53.90;;;;;;5162935;27;19911;-69
2022/02/14 07:46:26;;;;;;;;;;;13.20;53.70;;;;;;5162851;27;19911;-70
2022/02/14 07:48:52;;;;;;;;;;;13.20;53.80;;;;;;5162725;27;19945;-70
2022/02/14 07:51:18;;;;;;;;;;;13.30;53.80;;;;;;5162789;27;19911;-69
2022/02/14 07:53:43;;;;;;;;;;;13.30;53.60;;;;;;5162734;27;20413;-70
2022/02/14 07:56:12;;;;;;;;;;;13.30;53.90;;;;;;5162728;27;20234;-70
2022/02/14 07:58:38;;;;;;;;;;;13.30;53.40;;;;;;5162646;27;19964;-69
2022/02/14 08:01:04;;;;;;;;;;;13.30;53.60;;;;;;5162615;27;20016;-69
2022/02/14 08:03:30;;;;;;;;;;;13.40;53.40;;;;;;5144155;27;19911;-70
2022/02/14 08:05:56;;;;;;;;;;;13.40;53.50;;;;;;5162538;27;19911;-70
2022/02/14 08:08:22;;;;;;;;;;;13.30;53.40;;;;;;5087147;27;2101037;-70
2022/02/14 08:10:48;;;;;;;;;;;13.30;53.40;;;;;;5163504;27;19915;-70
2022/02/14 08:13:13;;;;;;;;;;;13.40;53.50;;;;;;5163342;27;19978;-70
2022/02/14 08:15:39;;;;;;;;;;;13.30;53.40;;;;;;5163361;27;19953;-70
2022/02/14 08:18:07;;;;;;;;;;;13.40;53.40;;;;;;5163341;27;20127;-70
2022/02/14 08:20:33;;;;;;;;;;;13.40;53.50;;;;;;5163211;27;20149;-69
2022/02/14 08:23:00;;;;;;;;;;;13.30;53.40;;;;;;5163186;27;19915;-69
2022/02/14 08:25:26;;;;;;;;;;;13.30;53.40;;;;;;5163077;27;19926;-70
2022/02/14 08:27:52;;;;;;;;;;;13.30;53.50;;;;;;5163044;27;20003;-69
2022/02/14 08:30:18;;;;;;;;;;;13.40;53.40;;;;;;5162220;27;19958;-69
2022/02/14 08:32:44;;;;;;;;;;;13.40;53.40;;;;;;5162981;27;19918;-69
2022/02/14 08:35:10;;;;;;;;;;;13.40;53.40;;;;;;5162914;27;19955;-70
2022/02/14 08:37:36;;;;;;;;;;;13.40;53.40;;;;;;5162844;27;19950;-70
2022/02/14 08:40:02;;;;;;;;;;;13.40;53.30;;;;;;5162825;27;20217;-69
2022/02/14 08:42:28;;;;;;;;;;;13.40;53.50;;;;;;5162840;27;19911;-70
2022/02/14 08:44:53;;;;;;;;;;;13.30;53.50;;;;;;5162722;27;19911;-69
2022/02/14 08:47:19;;;;;;;;;;;13.30;53.60;;;;;;5162675;27;19937;-69
2022/02/14 08:49:46;;;;;;;;;;;13.30;53.70;;;;;;5162641;27;19915;-70
2022/02/14 08:52:12;;;;;;;;;;;13.30;53.50;;;;;;5162570;27;19903;-70
2022/02/14 08:54:38;;;;;;;;;;;13.30;53.70;;;;;;5162472;27;20152;-70
2022/02/14 08:57:03;;;;;;;;;;;13.30;53.70;;;;;;5162503;27;19918;-69
2022/02/14 08:59:29;;;;;;;;;;;13.30;53.70;;;;;;5162471;27;19972;-69
2022/02/14 09:01:56;;;;;;;;;;;13.30;53.50;;;;;;5162406;27;19911;-69
2022/02/14 09:04:23;;;;;;;;;;;13.30;53.30;;;;;;5162478;27;19915;-70
2022/02/14 09:06:48;;;;;;;;;;;13.30;53.30;;;;;;5162307;27;19922;-69
2022/02/14 09:09:14;;;;;;;;;;;13.40;53.50;;;;;;5162101;27;20006;-69
2022/02/14 09:11:41;;;;;;;;;;;13.40;53.60;;;;;;5162271;27;19911;-70
2022/02/14 09:14:07;;;;;;;;;;;13.40;53.60;;;;;;5162231;27;19911;-70
2022/02/14 09:16:33;;;;;;;;;;;13.40;54.10;;;;;;5162204;27;20160;-69
2022/02/14 09:18:58;;;;;;;;;;;13.40;53.60;;;;;;5162095;27;19911;-70
2022/02/14 09:21:24;;;;;;;;;;;13.40;53.50;;;;;;5162089;27;19911;-70
2022/02/14 09:23:51;;;;;;;;;;;13.40;53.60;;;;;;5162017;27;19963;-69
2022/02/14 09:26:17;;;;;;;;;;;13.40;53.70;;;;;;5161845;27;19911;-70
2022/02/14 09:28:42;;;;;;;;;;;13.40;53.60;;;;;;5161936;27;20172;-70
2022/02/14 09:31:08;;;;;;;;;;;13.40;53.90;;;;;;5162036;27;19911;-69
2022/02/14 09:33:34;;;;;;;;;;;13.40;54.30;;;;;;5161906;27;19919;-69
2022/02/14 09:35:59;;;;;;;;;;;13.30;53.60;;;;;;5143337;27;19911;-70
2022/02/14 09:38:26;;;;;;;;;;;13.30;53.70;;;;;;5161894;27;19903;-69
2022/02/14 09:40:53;;;;;;;;;;;13.30;53.70;;;;;;5161756;27;19903;-70
2022/02/14 09:43:19;;;;;;;;;;;13.40;53.50;;;;;;5161842;27;19953;-69
2022/02/14 09:45:44;;;;;;;;;;;13.40;53.50;;;;;;5161798;27;20013;-70
2022/02/14 09:48:11;;;;;;;;;;;13.40;53.40;;;;;;5142995;27;20019;-70
2022/02/14 09:50:38;;;;;;;;;;;13.50;53.40;;;;;;5161714;27;19903;-69
2022/02/14 09:53:04;;;;;;;;;;;13.50;53.50;;;;;;5161610;27;19990;-69
2022/02/14 09:55:31;;;;;;;;;;;13.40;53.60;;;;;;5161660;27;19911;-70
2022/02/14 09:57:57;;;;;;;;;;;13.40;53.80;;;;;;5161647;27;19956;-69
2022/02/14 10:00:23;;;;;;;;;;;13.40;53.50;;;;;;5143239;27;19903;-69
2022/02/14 10:03:07;;;;;;;;;;;13.40;53.70;;;;;;5161454;27;19917;-69
2022/02/14 10:05:40;;;;;;;;;;;13.40;53.90;;;;;;5161540;27;19903;-69
2022/02/14 10:08:05;;;;;;;;;;;13.40;53.80;;;;;;5161304;27;19938;-70
2022/02/14 10:10:32;;;;;;;;;;;13.40;53.90;;;;;;5161483;27;20199;-69
2022/02/14 10:13:00;;;;;;;;;;;13.40;54.10;;;;;;5161409;27;19938;-70
2022/02/14 10:15:27;;;;;;;;;;;13.40;54.00;;;;;;5161336;27;20172;-69
2022/02/14 10:17:57;;;;;;;;;;;13.40;53.80;;;;;;5161493;27;19903;-69
2022/02/14 10:20:23;;;;;;;;;;;13.40;53.90;;;;;;5161442;27;19951;-70
2022/02/14 10:22:53;;;;;;;;;;;13.50;54.00;;;;;;5161365;27;19911;-70
2022/02/14 10:25:33;;;;;;;;;;;13.50;54.00;;;;;;5161408;27;19911;-69
2022/02/14 10:28:15;;;;;;;;;;;13.50;53.90;;;;;;5161318;27;20393;-69
2022/02/14 10:31:20;;;;;;;;;;;13.50;53.80;;;;;;5161368;27;19903;-69
2022/02/14 10:33:55;;;;;;;;;;;13.50;53.80;;;;;;5057000;28;20209;-69
2022/02/14 10:36:24;;;;;;;;;;;13.50;53.60;;;;;;5057004;28;19913;-69
2022/02/14 10:38:49;;;;;;;;;;;13.50;53.80;;;;;;5114536;27;20385;-69
2022/02/14 10:41:15;;;;;;;;;;;13.50;53.70;;;;;;5161183;27;19918;-69
2022/02/14 10:43:41;;;;;;;;;;;13.50;53.70;;;;;;5161142;27;20195;-70
2022/02/14 10:46:07;;;;;;;;;;;13.50;53.90;;;;;;5161209;27;20017;-70
2022/02/14 10:48:34;;;;;;;;;;;13.50;53.80;;;;;;5161045;27;19972;-69
2022/02/14 10:51:00;;;;;;;;;;;13.50;53.90;;;;;;5161179;27;19982;-69
2022/02/14 10:53:25;;;;;;;;;;;13.50;53.70;;;;;;5163067;27;19971;-69
2022/02/14 10:55:58;;;;;;;;;;;13.50;53.90;;;;;;5164876;27;19911;-69
2022/02/14 10:58:28;;;;;;;;;;;13.50;53.80;;;;;;5164829;27;19915;-69
2022/02/14 11:00:54;;;;;;;;;;;13.60;53.70;;;;;;5164712;27;19911;-69
2022/02/14 11:03:20;;;;;;;;;;;13.60;53.70;;;;;;5164730;27;19912;-69
2022/02/14 11:05:47;;;;;;;;;;;13.60;53.80;;;;;;5164630;27;20123;-70
2022/02/14 11:08:13;;;;;;;;;;;13.60;53.80;;;;;;5164469;27;20219;-69
2022/02/14 11:10:41;;;;;;;;;;;13.60;54.00;;;;;;5164543;27;20324;-69
2022/02/14 11:13:06;;;;;;;;;;;13.60;53.80;;;;;;5164541;27;19911;-70
2022/02/14 11:15:34;;;;;;;;;;;13.60;53.60;;;;;;5164407;27;19903;-70
2022/02/14 11:18:02;;;;;;;;;;;13.60;53.80;;;;;;5164697;27;19911;-69
2022/02/14 11:20:28;;;;;;;;;;;13.60;53.70;;;;;;5164389;27;19956;-71
2022/02/14 11:22:55;;;;;;;;;;;13.60;53.50;;;;;;5164312;27;19915;-69
2022/02/14 11:25:26;;;;;;;;;;;13.60;54.00;;;;;;5164319;27;19918;-70
2022/02/14 11:28:10;;;;;;;;;;;13.60;53.70;;;;;;5164130;27;19978;-69
2022/02/14 11:30:36;;;;;;;;;;;13.60;54.20;;;;;;5164546;27;19908;-70
2022/02/14 11:33:06;;;;;;;;;;;13.60;54.00;;;;;;5164108;27;19953;-70
2022/02/14 11:35:31;;;;;;;;;;;13.60;54.00;;;;;;5164104;27;20204;-69
2022/02/14 11:38:00;;;;;;;;;;;13.60;53.70;;;;;;5164043;27;19903;-69
2022/02/14 11:40:29;;;;;;;;;;;13.70;53.70;;;;;;5164045;27;19953;-69
2022/02/14 11:43:10;;;;;;;;;;;13.60;53.40;;;;;;5164129;27;19915;-70
2022/02/14 11:45:36;;;;;;;;;;;13.70;53.70;;;;;;5163951;27;19957;-70
2022/02/14 11:48:19;;;;;;;;;;;13.70;53.60;;;;;;5163813;27;19950;-70
2022/02/14 11:50:45;;;;;;;;;;;13.70;53.70;;;;;;5163754;27;20207;-69
2022/02/14 11:53:30;;;;;;;;;;;13.70;53.30;;;;;;5163695;27;19915;-69
2022/02/14 11:56:15;;;;;;;;;;;13.70;53.70;;;;;;5163682;27;19968;-70
2022/02/14 11:58:56;;;;;;;;;;;13.70;53.70;;;;;;5163471;27;20119;-70
2022/02/14 12:01:21;;;;;;;;;;;13.70;53.60;;;;;;5163477;27;19918;-69
2022/02/14 12:03:50;;;;;;;;;;;13.70;53.70;;;;;;5162835;27;19989;-69
2022/02/14 12:06:15;;;;;;;;;;;13.60;54.00;;;;;;5163059;27;19943;-70
2022/02/14 12:08:57;;;;;;;;;;;13.60;53.80;;;;;;5163229;27;19930;-69
2022/02/14 12:11:42;;;;;;;;;;;13.60;54.20;;;;;;5163441;27;19903;-69
2022/02/14 12:14:15;;;;;;;;;;;13.60;54.30;;;;;;5144459;27;19911;-70
2022/02/14 12:22:28;;;;;;;;;;;13.60;53.80;;;;;;5163166;27;19918;-68
2022/02/14 12:24:56;;;;;;;;;;;13.60;54.00;;;;;;5163128;27;19978;-69
2022/02/14 12:27:23;;;;;;;;;;;13.60;53.70;;;;;;5162917;27;19915;-69
2022/02/14 12:29:49;;;;;;;;;;;13.60;53.90;;;;;;5163058;27;19911;-69
2022/02/14 12:32:17;;;;;;;;;;;13.70;54.00;;;;;;5162938;27;19948;-69
2022/02/14 12:34:43;;;;;;;;;;;13.60;53.50;;;;;;5162808;27;20126;-70
2022/02/14 12:37:10;;;;;;;;;;;13.60;53.70;;;;;;5162898;27;20008;-71
2022/02/14 12:39:40;;;;;;;;;;;13.60;54.00;;;;;;5162821;27;19907;-70
2022/02/14 12:42:09;;;;;;;;;;;13.60;54.10;;;;;;5162811;27;19946;-69
2022/02/14 12:44:35;;;;;;;;;;;13.60;54.10;;;;;;5162708;27;19911;-67
2022/02/14 12:47:00;;;;;;;;;;;13.60;54.20;;;;;;5162571;27;19998;-69
2022/02/14 12:49:26;;;;;;;;;;;13.60;54.20;;;;;;5162561;27;19978;-69
2022/02/14 12:51:51;;;;;;;;;;;13.60;54.10;;;;;;5162556;27;19911;-69
2022/02/14 12:54:17;;;;;;;;;;;13.60;54.10;;;;;;5162520;27;20230;-70
2022/02/14 12:56:43;;;;;;;;;;;13.60;53.90;;;;;;5162510;27;19915;-69
2022/02/14 12:59:10;;;;;;;;;;;13.70;53.90;;;;;;5162449;27;19978;-69
2022/02/14 13:01:40;;;;;;;;;;;13.70;53.90;;;;;;5162435;27;20521;-70
2022/02/14 13:04:11;;;;;;;;;;;13.70;53.70;;;;;;5162392;27;19918;-70
2022/02/14 13:06:45;;;;;;;;;;;13.70;53.70;;;;;;5162350;27;19911;-70
2022/02/14 13:09:20;;;;;;;;;;;13.70;54.10;;;;;;5140048;27;20131;-71
2022/02/14 13:11:48;;;;;;;;;;;13.70;54.00;;;;;;5141465;27;19911;-70
2022/02/14 13:14:32;;;;;;;;;;;13.70;53.80;;;;;;5141495;27;20226;-70
2022/02/14 13:16:59;;;;;;;;;;;13.70;54.00;;;;;;5141044;27;19956;-70
2022/02/14 13:19:25;;;;;;;;;;;13.60;54.10;;;;;;5141351;27;20115;-70
2022/02/14 13:21:51;;;;;;;;;;;13.60;54.10;;;;;;5141343;27;19918;-70
2022/02/14 13:24:17;;;;;;;;;;;13.60;54.20;;;;;;5141303;27;19918;-70
2022/02/14 13:26:43;;;;;;;;;;;13.60;54.20;;;;;;5141192;27;19922;-70
2022/02/14 13:29:09;;;;;;;;;;;13.60;54.10;;;;;;5141224;27;19912;-70
2022/02/14 13:31:34;;;;;;;;;;;13.70;54.10;;;;;;5141163;27;19911;-70
2022/02/14 13:34:02;;;;;;;;;;;13.70;54.10;;;;;;5141150;27;19911;-70
2022/02/14 13:36:27;;;;;;;;;;;13.70;54.00;;;;;;5141156;27;19911;-70
2022/02/14 13:38:54;;;;;;;;;;;13.70;53.70;;;;;;5141083;27;19911;-70
2022/02/14 13:41:25;;;;;;;;;;;13.70;53.80;;;;;;5141408;27;19918;-70
2022/02/14 13:43:51;;;;;;;;;;;13.70;53.80;;;;;;5141067;27;19945;-70
2022/02/14 13:46:25;;;;;;;;;;;13.70;53.90;;;;;;5140936;27;20100;-70
2022/02/14 13:48:50;;;;;;;;;;;13.70;53.70;;;;;;5140999;27;20302;-70
2022/02/14 13:51:26;;;;;;;;;;;13.80;53.80;;;;;;5141056;27;19920;-70
2022/02/14 13:53:55;;;;;;;;;;;13.80;53.70;;;;;;5140966;27;19982;-69
2022/02/14 13:56:20;;;;;;;;;;;13.90;53.60;;;;;;5141143;28;19979;-70
2022/02/14 13:58:50;;;;;;;;;;;13.80;53.50;;;;;;5140906;28;19911;-69
2022/02/14 14:01:20;;;;;;;;;;;13.90;53.70;;;;;;5140840;27;19950;-70
2022/02/14 14:03:47;;;;;;;;;;;13.90;53.60;;;;;;5140868;28;20218;-69
2022/02/14 14:06:38;;;;;;;;;;;13.90;53.70;;;;;;5140828;28;19945;-70
2022/02/14 14:09:17;;;;;;;;;;;13.90;53.80;;;;;;5136585;28;19994;-69
2022/02/14 14:11:43;;;;;;;;;;;13.90;53.70;;;;;;5140813;28;19914;-69
2022/02/14 14:14:08;;;;;;;;;;;13.90;53.50;;;;;;5140798;28;19911;-70
2022/02/14 14:16:34;;;;;;;;;;;14.00;53.50;;;;;;5140728;28;19965;-70
2022/02/14 14:19:01;;;;;;;;;;;14.00;53.60;;;;;;5140739;28;20024;-70
2022/02/14 14:21:27;;;;;;;;;;;14.00;53.50;;;;;;5140643;28;19907;-70